Flight Track Log - Related Links

Times and Time Zones

All times are in EDT time to prevent confusion due to time zone crossing. See the RPA3457 flight status page for this flight to view local times or setup timezone preferences in your user account.

Time Position Orientation Groundspeed Altitude Reporting Facility
EDT Latitude Longitude Course Direction KTS MPH feet Rate Location/Type
Tue 08:03:03 AM 44.4050 -73.1492 195° South 185 213 3,700  Level Boston Center
Tue 08:04:00 AM 44.1650 -73.2632 195° South  Level FlightAware Approximate
Tue 08:04:03 AM 44.3506 -73.1717 196° South 238 274 6,900  Level Boston Center
Tue 08:05:00 AM 44.0638 -73.3009 194° South  Level FlightAware Approximate
Tue 08:05:03 AM 44.2817 -73.1997 196° South 253 291 9,900  Level Boston Center
Tue 08:06:00 AM 43.9620 -73.3349 194° South  Level FlightAware Approximate
Tue 08:06:03 AM 44.2044 -73.2306 196° South 274 315 12,400  Level Boston Center
Tue 08:07:00 AM 43.8606 -73.3711 195° South  Level FlightAware Approximate
Tue 08:07:03 AM 44.1167 -73.2672 197° South 314 361 14,500  Level Boston Center
Tue 08:08:00 AM 43.7595 -73.4090 195° South  Level FlightAware Approximate
Tue 08:08:03 AM 44.0247 -73.3033 196° South 342 394 17,100  Level Boston Center
Tue 08:09:03 AM 43.9347 -73.3394 196° South 363 418 19,100 2,050 Climbing Boston Center
Tue 08:10:03 AM 43.8386 -73.3783 196° South 363 418 21,200 2,050 Climbing Boston Center
Tue 08:11:03 AM 43.7361 -73.4200 196° South 369 425 23,200 2,000 Climbing Boston Center
Tue 08:12:03 AM 43.6233 -73.4639 196° South 381 438 25,200 1,400 Climbing Boston Center
Tue 08:13:03 AM 43.5167 -73.5050 196° South 387 445 26,000 400 Climbing Boston Center
Tue 08:14:03 AM 43.4100 -73.5461 196° South 392 451 26,000  Level Boston Center
Tue 08:15:03 AM 43.3053 -73.5869 196° South 397 457 26,000 250 Level Boston Center
Tue 08:16:03 AM 43.2028 -73.6278 196° South 397 457 26,500 1,050 Climbing Boston Center
Tue 08:17:03 AM 43.1108 -73.6658 197° South 397 457 28,100 1,750 Climbing Boston Center
Tue 08:18:03 AM 43.0103 -73.7036 195° South 391 450 30,000 950 Climbing Boston Center
Tue 08:19:03 AM 42.9139 -73.7414 196° South 375 432 30,000  Level Boston Center
Tue 08:20:03 AM 42.8136 -73.7817 196° South 375 432 30,000  Level Boston Center
Tue 08:21:03 AM 42.7069 -73.8019 188° South 380 437 30,000  Level Boston Center
Tue 08:22:03 AM 42.5906 -73.7825 173° South 385 443 30,000  Level Boston Center
Tue 08:23:03 AM 42.4803 -73.7661 174° South 391 450 30,000  Level Boston Center
Tue 08:24:03 AM 42.3719 -73.7497 174° South 391 450 30,000  Level Boston Center
Tue 08:25:03 AM 42.2617 -73.7333 174° South 391 450 30,000  Level Boston Center
Tue 08:26:03 AM 42.1706 -73.6839 158° South 397 457 30,000  Level Boston Center
Tue 08:27:03 AM 42.0842 -73.5758 137° Southeast 393 452 30,000  Level Boston Center
Tue 08:28:03 AM 42.0039 -73.4850 140° Southeast 415 478 30,000  Level Boston Center
Tue 08:29:03 AM 41.8944 -73.3689 142° Southeast 425 489 30,000  Level Boston Center
Tue 08:30:03 AM 41.7861 -73.3422 170° South 391 450 30,000  Level Boston Center
Tue 08:31:03 AM 41.6842 -73.3214 171° South 385 443 30,000  Level Boston Center
Tue 08:32:03 AM 41.5964 -73.3700 202° Southwest 349 402 30,000  Level Boston Center
Tue 08:33:53 AM 41.5339 -73.5925 249° West 331 381 30,000  Level New York Center
Tue 08:34:53 AM 41.4547 -73.6858 221° Southwest 358 412 30,000  Level New York Center
Tue 08:35:51 AM 41.3692 -73.7789 219° Southwest 379 436 30,000  Level New York Center
Tue 08:36:52 AM 41.2856 -73.8692 219° Southwest 390 449 30,000  Level New York Center
Tue 08:37:52 AM 41.2019 -73.9589 219° Southwest 395 455 30,000  Level New York Center
Tue 08:38:53 AM 41.1181 -74.0514 220° Southwest 395 455 30,000 -248 Level New York Center
Tue 08:39:53 AM 41.0364 -74.1436 220° Southwest 395 455 29,500 -763 Descending New York Center
Tue 08:40:51 AM 40.9464 -74.2297 216° Southwest 400 460 28,500 -1,000 Descending New York Center
Tue 08:41:53 AM 40.8603 -74.3269 221° Southwest 405 466 27,500 -992 Descending New York Center
Tue 08:42:52 AM 40.7761 -74.4211 220° Southwest 410 472 26,500 -750 Descending New York Center
Tue 08:43:53 AM 40.7078 -74.5381 232° Southwest 405 466 26,000 -250 Descending New York Center
Tue 08:44:52 AM 40.6375 -74.6517 231° Southwest 405 466 26,000  Level New York Center
Tue 08:45:52 AM 40.5669 -74.7653 231° Southwest 410 472 26,000  Level New York Center
Tue 08:46:53 AM 40.4903 -74.8725 227° Southwest 410 472 26,000  Level New York Center
Tue 08:47:51 AM 40.4133 -74.9853 228° Southwest 415 478 26,000  Level New York Center
Tue 08:48:51 AM 40.3364 -75.0950 227° Southwest 415 478 26,000 -298 Level New York Center
Tue 08:49:52 AM 40.2617 -75.1989 227° Southwest 415 478 25,400 -1,500 Descending New York Center
Tue 08:50:51 AM 40.1825 -75.3136 228° Southwest 405 466 23,000 -1,714 Descending New York Center
Tue 08:51:51 AM 40.1097 -75.4119 226° Southwest 399 459 22,000 -500 Descending New York Center
Tue 08:52:51 AM 40.0369 -75.5128 227° Southwest 399 459 22,000  Level New York Center
Tue 08:53:52 AM 39.9642 -75.6136 227° Southwest 394 453 22,000  Level New York Center
Tue 08:54:52 AM 39.8950 -75.7197 230° Southwest 394 453 22,000  Level New York Center
Tue 08:55:53 AM 39.8236 -75.8308 230° Southwest 394 453 22,000 -504 Level New York Center
Tue 08:56:51 AM 39.7564 -75.9367 230° Southwest 394 453 21,000 -1,513 Descending New York Center
Tue 08:57:52 AM 39.6892 -76.0425 230° Southwest 394 453 19,000 -1,736 Descending New York Center
Tue 08:58:52 AM 39.6308 -76.1350 231° Southwest 384 442 17,500 -1,920 Descending New York Center
Tue 09:00:00 AM 39.5877 -76.2850 250° West  Level FlightAware Approximate
Tue 09:00:47 AM 39.5000 -76.3333 250° West 355 409 13,400  Level Potomac TRACON
Tue 09:01:47 AM 39.4333 -76.4333 229° Southwest 336 387 12,000 -750 Descending Potomac TRACON
Tue 09:02:47 AM 39.3667 -76.4833 210° Southwest 291 335 11,900 -50 Descending Potomac TRACON
Tue 09:03:47 AM 39.3000 -76.5500 218° Southwest 290 334 11,900 -316 Level Potomac TRACON
Tue 09:04:41 AM 39.2333 -76.6000 210° Southwest 288 331 11,300 -1,053 Descending Potomac TRACON
Tue 09:05:41 AM 39.1667 -76.6667 218° Southwest 291 335 9,900 -650 Descending Potomac TRACON
Tue 09:06:41 AM 39.1167 -76.7333 226° Southwest 290 334 10,000 -450 Climbing Potomac TRACON
Tue 09:07:41 AM 39.0500 -76.8000 218° Southwest 288 331 9,000 -1,350 Descending Potomac TRACON
Tue 09:08:41 AM 39.0000 -76.8667 226° Southwest 275 316 7,300 -1,450 Descending Potomac TRACON
Tue 09:09:41 AM 38.9333 -76.9333 218° Southwest 250 288 6,100 -645 Descending Potomac TRACON
Tue 09:10:42 AM 38.8833 -76.9500 195° South 209 241 6,000 -52 Descending Potomac TRACON
Tue 09:11:36 AM 38.8333 -76.9500 180° South 211 243 6,000 -474 Level Potomac TRACON
Tue 09:12:36 AM 38.7833 -76.9500 180° South 188 216 5,100 -500 Descending Potomac TRACON
Tue 09:13:36 AM 38.7333 -76.9333 165° South 189 217 5,000 -50 Descending Potomac TRACON
Tue 09:14:36 AM 38.6833 -76.9333 180° South 189 217 5,000  Level Potomac TRACON
Tue 09:15:36 AM 38.6167 -76.9333 180° South 190 219 5,000  Level Potomac TRACON
Tue 09:16:30 AM 38.5667 -76.9167 165° South 191 220 5,000  Level Potomac TRACON
Tue 09:17:24 AM 38.5167 -76.9167 180° South 191 220 5,000 52 Level Potomac TRACON
Tue 09:18:25 AM 38.4667 -76.9333 195° South 199 229 5,100 -248 Climbing Potomac TRACON
Tue 09:19:25 AM 38.4833 -76.9667 303° West 172 198 4,500 -550 Descending Potomac TRACON
Tue 09:20:25 AM 38.5333 -77.0000 332° Northwest 157 181 4,000 -250 Descending Potomac TRACON
Tue 09:21:25 AM 38.5667 -77.0167 339° North 154 177 4,000  Level Potomac TRACON
Tue 09:22:19 AM 38.6167 -77.0167 360° North 156 180 4,000 -53 Level Potomac TRACON
Tue 09:23:19 AM 38.6500 -77.0167 360° North 154 177 3,900 -417 Descending Potomac TRACON
Tue 09:24:14 AM 38.6833 -77.0167 360° North 156 180 3,200 -835 Descending Potomac TRACON
Tue 09:25:14 AM 38.7333 -77.0333 345° North 154 177 2,300 -900 Descending Potomac TRACON

Login

Don't have an account? Register now (free) for customized features, flight alerts, and more!